OAL792 LGPA-LGNX
Flight info
| Callsign | OAL792 |
|---|---|
| Flight time | N/A |
| Altitude | 5000 |
| Route | RAPOS DCT RIPLI |
| Aircraft | PC12/L-SDFGRWY/S |
Departure
| Time | 2026-05-06 21:34 |
|---|---|
| Airport | Paros National Airport (LGPA) |
Arrival
| Time | N/A |
|---|---|
| Airport | Naxos Island National Airport (LGNX) |
| Time | Latitude | Longitude | Altitude | Speed | Heading |
|---|---|---|---|---|---|
| 2026-05-06 21:27 | 37.02021 | 25.11572 | 137 ft | 0 kts | 30° |
| 2026-05-06 21:31 | 37.02033 | 25.11564 | 109 ft | 6 kts | 289° |
| 2026-05-06 21:31 | 37.01986 | 25.11509 | 137 ft | 14 kts | 199° |
| 2026-05-06 21:32 | 37.01898 | 25.11455 | 136 ft | 15 kts | 217° |
| 2026-05-06 21:32 | 37.01674 | 25.11409 | 135 ft | 16 kts | 168° |
| 2026-05-06 21:32 | 37.01569 | 25.11443 | 135 ft | 15 kts | 155° |
| 2026-05-06 21:33 | 37.01517 | 25.11448 | 135 ft | 0 kts | 247° |
| 2026-05-06 21:33 | 37.01517 | 25.11444 | 135 ft | 3 kts | 291° |
| 2026-05-06 21:33 | 37.01586 | 25.11431 | 135 ft | 23 kts | 348° |
| 2026-05-06 21:33 | 37.01932 | 25.11352 | 136 ft | 76 kts | 348° |
| 2026-05-06 21:34 | 37.02549 | 25.11175 | 229 ft | 98 kts | 348° |
| 2026-05-06 21:34 | 37.03234 | 25.10949 | 497 ft | 106 kts | 344° |
| 2026-05-06 21:34 | 37.03929 | 25.10555 | 793 ft | 116 kts | 336° |
| 2026-05-06 21:34 | 37.04728 | 25.10131 | 992 ft | 134 kts | 340° |
| 2026-05-06 21:35 | 37.05667 | 25.09741 | 1256 ft | 153 kts | 346° |
| 2026-05-06 21:35 | 37.06737 | 25.09933 | 1657 ft | 166 kts | 30° |
| 2026-05-06 21:35 | 37.07293 | 25.10672 | 1899 ft | 176 kts | 64° |
| 2026-05-06 21:35 | 37.07432 | 25.12186 | 2384 ft | 176 kts | 103° |
| 2026-05-06 21:36 | 37.07115 | 25.13627 | 3111 ft | 170 kts | 103° |
| 2026-05-06 21:36 | 37.06838 | 25.15025 | 3802 ft | 167 kts | 102° |
| 2026-05-06 21:36 | 37.06664 | 25.16460 | 4224 ft | 170 kts | 88° |
| 2026-05-06 21:36 | 37.07086 | 25.17846 | 4424 ft | 182 kts | 41° |
| 2026-05-06 21:37 | 37.08260 | 25.18271 | 4693 ft | 186 kts | 344° |
| 2026-05-06 21:37 | 37.09379 | 25.17618 | 5131 ft | 163 kts | 329° |
| 2026-05-06 21:37 | 37.10285 | 25.16860 | 5269 ft | 160 kts | 321° |
| 2026-05-06 21:37 | 37.10735 | 25.15715 | 5237 ft | 158 kts | 255° |
| 2026-05-06 21:38 | 37.09941 | 25.14902 | 5435 ft | 151 kts | 191° |
| 2026-05-06 21:38 | 37.08881 | 25.15097 | 5215 ft | 162 kts | 162° |
| 2026-05-06 21:38 | 37.07786 | 25.15107 | 5021 ft | 161 kts | 207° |
| 2026-05-06 21:38 | 37.07437 | 25.14237 | 5608 ft | 96 kts | 317° |
| 2026-05-06 21:39 | 37.08014 | 25.14781 | 4867 ft | 155 kts | 73° |
| 2026-05-06 21:39 | 37.08681 | 25.15413 | 4872 ft | 137 kts | 349° |
| 2026-05-06 21:39 | 37.09628 | 25.14654 | 3585 ft | 197 kts | 309° |
| 2026-05-06 21:39 | 37.09902 | 25.13164 | 3780 ft | 168 kts | 234° |
| 2026-05-06 21:40 | 37.08808 | 25.12727 | 3299 ft | 173 kts | 191° |
| 2026-05-06 21:40 | 37.07833 | 25.12168 | 3381 ft | 141 kts | 222° |
| 2026-05-06 21:40 | 37.07367 | 25.11302 | 3534 ft | 110 kts | 279° |
| 2026-05-06 21:40 | 37.08028 | 25.10826 | 3166 ft | 137 kts | 5° |
| 2026-05-06 21:41 | 37.08893 | 25.11312 | 2934 ft | 145 kts | 30° |
| 2026-05-06 21:41 | 37.09852 | 25.12026 | 2371 ft | 166 kts | 25° |
| 2026-05-06 21:41 | 37.10859 | 25.12707 | 2126 ft | 161 kts | 30° |
| 2026-05-06 21:41 | 37.11757 | 25.13337 | 2245 ft | 129 kts | 4° |
| 2026-05-06 21:42 | 37.12374 | 25.12771 | 2020 ft | 128 kts | 267° |
| 2026-05-06 21:42 | 37.11718 | 25.12229 | 1726 ft | 143 kts | 161° |
| 2026-05-06 21:42 | 37.10910 | 25.12879 | 1621 ft | 134 kts | 161° |
| 2026-05-06 21:42 | 37.10023 | 25.12901 | 1677 ft | 124 kts | 201° |
| 2026-05-06 21:43 | 37.09315 | 25.12389 | 1707 ft | 120 kts | 215° |
| 2026-05-06 21:43 | 37.08498 | 25.11743 | 1171 ft | 146 kts | 210° |
| 2026-05-06 21:43 | 37.07671 | 25.11186 | 1093 ft | 127 kts | 205° |
| 2026-05-06 21:43 | 37.06883 | 25.10846 | 1026 ft | 113 kts | 184° |
| 2026-05-06 21:44 | 37.06119 | 25.10726 | 942 ft | 107 kts | 189° |
| 2026-05-06 21:44 | 37.05432 | 25.10618 | 885 ft | 89 kts | 180° |
| 2026-05-06 21:44 | 37.04857 | 25.10639 | 696 ft | 85 kts | 167° |
| 2026-05-06 21:44 | 37.04258 | 25.10785 | 529 ft | 84 kts | 166° |
| 2026-05-06 21:45 | 37.03676 | 25.10940 | 378 ft | 86 kts | 165° |
| 2026-05-06 21:45 | 37.03110 | 25.11079 | 233 ft | 80 kts | 162° |
| 2026-05-06 21:45 | 37.02567 | 25.11194 | 152 ft | 76 kts | 165° |
| 2026-05-06 21:45 | 37.02128 | 25.11305 | 137 ft | 49 kts | 176° |
| 2026-05-06 21:46 | 37.01969 | 25.11338 | 136 ft | 17 kts | 169° |
| 2026-05-06 21:46 | 37.01832 | 25.11372 | 134 ft | 24 kts | 167° |
| 2026-05-06 21:46 | 37.01664 | 25.11416 | 135 ft | 18 kts | 169° |
| 2026-05-06 21:46 | 37.01635 | 25.11421 | 135 ft | 7 kts | 172° |
| 2026-05-06 21:47 | 37.01596 | 25.11428 | 135 ft | 2 kts | 171° |
| 2026-05-06 21:47 | 37.01575 | 25.11433 | 135 ft | 1 kts | 169° |